sensor_id;sensor_type;location;lat;lon;timestamp;temperature;humidity
52565;DHT22;38460;53.106;7.004;2024-02-04T00:00:19;6.70;99.90
52565;DHT22;38460;53.106;7.004;2024-02-04T00:02:45;6.70;99.90
52565;DHT22;38460;53.106;7.004;2024-02-04T00:05:10;6.70;99.90
52565;DHT22;38460;53.106;7.004;2024-02-04T00:07:36;6.70;99.90
52565;DHT22;38460;53.106;7.004;2024-02-04T00:10:02;6.60;99.90
52565;DHT22;38460;53.106;7.004;2024-02-04T00:12:28;6.60;99.90
52565;DHT22;38460;53.106;7.004;2024-02-04T00:14:54;6.60;99.90
52565;DHT22;38460;53.106;7.004;2024-02-04T00:17:20;6.60;99.90
52565;DHT22;38460;53.106;7.004;2024-02-04T00:19:46;6.60;99.90
52565;DHT22;38460;53.106;7.004;2024-02-04T00:22:11;6.60;99.90
52565;DHT22;38460;53.106;7.004;2024-02-04T00:24:37;6.60;99.90
52565;DHT22;38460;53.106;7.004;2024-02-04T00:27:03;6.60;99.90
52565;DHT22;38460;53.106;7.004;2024-02-04T00:29:29;6.60;99.90
52565;DHT22;38460;53.106;7.004;2024-02-04T00:31:55;6.50;99.90
52565;DHT22;38460;53.106;7.004;2024-02-04T00:34:20;6.50;99.90
52565;DHT22;38460;53.106;7.004;2024-02-04T00:36:46;6.50;99.90
52565;DHT22;38460;53.106;7.004;2024-02-04T00:39:12;6.50;99.90
52565;DHT22;38460;53.106;7.004;2024-02-04T00:41:38;6.50;99.90
52565;DHT22;38460;53.106;7.004;2024-02-04T00:44:03;6.50;99.90
52565;DHT22;38460;53.106;7.004;2024-02-04T00:46:29;6.40;99.90
52565;DHT22;38460;53.106;7.004;2024-02-04T00:48:55;6.40;99.90
52565;DHT22;38460;53.106;7.004;2024-02-04T00:51:21;6.40;99.90
52565;DHT22;38460;53.106;7.004;2024-02-04T00:53:47;6.40;99.90
52565;DHT22;38460;53.106;7.004;2024-02-04T00:56:13;6.40;99.90
52565;DHT22;38460;53.106;7.004;2024-02-04T00:58:39;6.30;99.90
52565;DHT22;38460;53.106;7.004;2024-02-04T01:01:05;6.30;99.90
52565;DHT22;38460;53.106;7.004;2024-02-04T01:03:31;6.30;99.90
52565;DHT22;38460;53.106;7.004;2024-02-04T01:05:57;6.20;99.90
52565;DHT22;38460;53.106;7.004;2024-02-04T01:08:23;6.20;99.90
52565;DHT22;38460;53.106;7.004;2024-02-04T01:10:49;6.20;99.90
52565;DHT22;38460;53.106;7.004;2024-02-04T01:13:17;6.20;99.90
52565;DHT22;38460;53.106;7.004;2024-02-04T01:15:43;6.10;99.90
52565;DHT22;38460;53.106;7.004;2024-02-04T01:18:08;6.10;99.90
52565;DHT22;38460;53.106;7.004;2024-02-04T01:20:34;6.10;99.90
52565;DHT22;38460;53.106;7.004;2024-02-04T01:23:00;6.10;99.90
52565;DHT22;38460;53.106;7.004;2024-02-04T01:25:27;6.00;99.90
52565;DHT22;38460;53.106;7.004;2024-02-04T01:27:53;6.10;99.90
52565;DHT22;38460;53.106;7.004;2024-02-04T01:30:18;6.00;99.90
52565;DHT22;38460;53.106;7.004;2024-02-04T01:32:44;6.00;99.90
52565;DHT22;38460;53.106;7.004;2024-02-04T01:35:11;6.00;99.90
52565;DHT22;38460;53.106;7.004;2024-02-04T01:37:37;5.90;99.90
52565;DHT22;38460;53.106;7.004;2024-02-04T01:40:03;5.90;99.90
52565;DHT22;38460;53.106;7.004;2024-02-04T01:42:31;5.90;99.90
52565;DHT22;38460;53.106;7.004;2024-02-04T01:44:57;5.80;99.90
52565;DHT22;38460;53.106;7.004;2024-02-04T01:47:23;5.80;99.90
52565;DHT22;38460;53.106;7.004;2024-02-04T01:49:49;5.80;99.90
52565;DHT22;38460;53.106;7.004;2024-02-04T01:52:15;5.80;99.90
52565;DHT22;38460;53.106;7.004;2024-02-04T01:54:42;5.80;99.90
52565;DHT22;38460;53.106;7.004;2024-02-04T01:57:10;5.70;99.90
52565;DHT22;38460;53.106;7.004;2024-02-04T01:59:38;5.70;99.90
52565;DHT22;38460;53.106;7.004;2024-02-04T02:02:05;5.70;99.90
52565;DHT22;38460;53.106;7.004;2024-02-04T02:04:31;5.70;99.90
52565;DHT22;38460;53.106;7.004;2024-02-04T02:06:58;5.70;99.90
52565;DHT22;38460;53.106;7.004;2024-02-04T02:09:25;5.70;99.90
52565;DHT22;38460;53.106;7.004;2024-02-04T02:12:03;5.70;99.90
52565;DHT22;38460;53.106;7.004;2024-02-04T02:14:34;5.60;99.90
52565;DHT22;38460;53.106;7.004;2024-02-04T02:17:06;5.60;99.90
52565;DHT22;38460;53.106;7.004;2024-02-04T02:22:25;5.50;99.90
52565;DHT22;38460;53.106;7.004;2024-02-04T02:24:52;5.50;99.90
52565;DHT22;38460;53.106;7.004;2024-02-04T02:27:19;5.50;99.90
52565;DHT22;38460;53.106;7.004;2024-02-04T02:29:45;5.50;99.90
52565;DHT22;38460;53.106;7.004;2024-02-04T02:32:11;5.50;99.90
52565;DHT22;38460;53.106;7.004;2024-02-04T02:34:36;5.50;99.90
52565;DHT22;38460;53.106;7.004;2024-02-04T02:39:41;5.40;99.90
52565;DHT22;38460;53.106;7.004;2024-02-04T02:42:10;5.40;99.90
52565;DHT22;38460;53.106;7.004;2024-02-04T02:44:38;5.30;99.90
52565;DHT22;38460;53.106;7.004;2024-02-04T02:47:05;5.30;99.90
52565;DHT22;38460;53.106;7.004;2024-02-04T02:49:32;5.30;99.90
52565;DHT22;38460;53.106;7.004;2024-02-04T02:51:58;5.30;99.90
52565;DHT22;38460;53.106;7.004;2024-02-04T02:54:24;4.80;99.90
52565;DHT22;38460;53.106;7.004;2024-02-04T02:56:49;5.30;99.90
52565;DHT22;38460;53.106;7.004;2024-02-04T02:59:16;5.30;99.90
52565;DHT22;38460;53.106;7.004;2024-02-04T03:01:41;5.20;99.90
52565;DHT22;38460;53.106;7.004;2024-02-04T03:04:07;5.20;99.90
52565;DHT22;38460;53.106;7.004;2024-02-04T03:06:33;5.20;99.90
52565;DHT22;38460;53.106;7.004;2024-02-04T03:08:59;5.20;99.90
52565;DHT22;38460;53.106;7.004;2024-02-04T03:11:24;5.20;99.90
52565;DHT22;38460;53.106;7.004;2024-02-04T03:13:50;5.20;99.90
52565;DHT22;38460;53.106;7.004;2024-02-04T03:16:16;5.20;99.90
52565;DHT22;38460;53.106;7.004;2024-02-04T03:18:43;5.20;99.90
52565;DHT22;38460;53.106;7.004;2024-02-04T03:21:16;5.10;99.90
52565;DHT22;38460;53.106;7.004;2024-02-04T03:23:42;5.10;99.90
52565;DHT22;38460;53.106;7.004;2024-02-04T03:26:09;5.20;99.90
52565;DHT22;38460;53.106;7.004;2024-02-04T03:28:35;5.10;99.90
52565;DHT22;38460;53.106;7.004;2024-02-04T03:31:01;5.10;99.90
52565;DHT22;38460;53.106;7.004;2024-02-04T03:33:27;5.10;99.90
52565;DHT22;38460;53.106;7.004;2024-02-04T03:35:53;5.10;99.90
52565;DHT22;38460;53.106;7.004;2024-02-04T03:38:18;5.10;99.90
52565;DHT22;38460;53.106;7.004;2024-02-04T03:40:44;5.10;99.90
52565;DHT22;38460;53.106;7.004;2024-02-04T03:43:10;5.10;99.90
52565;DHT22;38460;53.106;7.004;2024-02-04T03:45:36;5.10;99.90
52565;DHT22;38460;53.106;7.004;2024-02-04T03:48:02;5.10;99.90
52565;DHT22;38460;53.106;7.004;2024-02-04T03:50:28;5.10;99.90
52565;DHT22;38460;53.106;7.004;2024-02-04T03:52:54;5.10;99.90
52565;DHT22;38460;53.106;7.004;2024-02-04T03:55:20;5.10;99.90
52565;DHT22;38460;53.106;7.004;2024-02-04T03:57:45;5.20;99.90
52565;DHT22;38460;53.106;7.004;2024-02-04T04:00:12;5.20;99.90
52565;DHT22;38460;53.106;7.004;2024-02-04T04:02:38;5.20;99.90
52565;DHT22;38460;53.106;7.004;2024-02-04T04:05:04;5.20;99.90
52565;DHT22;38460;53.106;7.004;2024-02-04T04:07:30;5.30;99.90
52565;DHT22;38460;53.106;7.004;2024-02-04T04:09:56;5.20;99.90
52565;DHT22;38460;53.106;7.004;2024-02-04T04:12:22;5.20;99.90
52565;DHT22;38460;53.106;7.004;2024-02-04T04:14:47;5.30;99.90
52565;DHT22;38460;53.106;7.004;2024-02-04T04:17:13;5.30;99.90
52565;DHT22;38460;53.106;7.004;2024-02-04T04:19:39;5.30;99.90
52565;DHT22;38460;53.106;7.004;2024-02-04T04:22:05;5.30;99.90
52565;DHT22;38460;53.106;7.004;2024-02-04T04:24:31;5.30;99.90
52565;DHT22;38460;53.106;7.004;2024-02-04T04:26:57;5.30;99.90
52565;DHT22;38460;53.106;7.004;2024-02-04T04:29:22;5.30;99.90
52565;DHT22;38460;53.106;7.004;2024-02-04T04:31:48;5.30;99.90
52565;DHT22;38460;53.106;7.004;2024-02-04T04:34:14;5.40;99.90
52565;DHT22;38460;53.106;7.004;2024-02-04T04:36:40;5.40;99.90
52565;DHT22;38460;53.106;7.004;2024-02-04T04:39:05;5.40;99.90
52565;DHT22;38460;53.106;7.004;2024-02-04T04:41:31;5.40;99.90
52565;DHT22;38460;53.106;7.004;2024-02-04T04:43:57;5.40;99.90
52565;DHT22;38460;53.106;7.004;2024-02-04T04:46:22;5.40;99.90
52565;DHT22;38460;53.106;7.004;2024-02-04T04:48:48;5.40;99.90
52565;DHT22;38460;53.106;7.004;2024-02-04T04:51:14;5.40;99.90
52565;DHT22;38460;53.106;7.004;2024-02-04T04:53:39;5.40;99.90
52565;DHT22;38460;53.106;7.004;2024-02-04T04:56:05;5.40;99.90
52565;DHT22;38460;53.106;7.004;2024-02-04T04:58:32;5.40;99.90
52565;DHT22;38460;53.106;7.004;2024-02-04T05:00:57;5.50;99.90
52565;DHT22;38460;53.106;7.004;2024-02-04T05:03:23;5.50;99.90
52565;DHT22;38460;53.106;7.004;2024-02-04T05:05:49;5.40;99.90
52565;DHT22;38460;53.106;7.004;2024-02-04T05:08:15;5.50;99.90
52565;DHT22;38460;53.106;7.004;2024-02-04T05:10:41;5.50;99.90
52565;DHT22;38460;53.106;7.004;2024-02-04T05:13:07;5.50;99.90
52565;DHT22;38460;53.106;7.004;2024-02-04T05:15:33;5.50;99.90
52565;DHT22;38460;53.106;7.004;2024-02-04T05:18:02;5.60;99.90
52565;DHT22;38460;53.106;7.004;2024-02-04T05:20:28;5.60;99.90
52565;DHT22;38460;53.106;7.004;2024-02-04T05:22:54;5.50;99.90
52565;DHT22;38460;53.106;7.004;2024-02-04T05:25:20;5.50;99.90
52565;DHT22;38460;53.106;7.004;2024-02-04T05:27:46;5.50;99.90
52565;DHT22;38460;53.106;7.004;2024-02-04T05:30:12;5.60;99.90
52565;DHT22;38460;53.106;7.004;2024-02-04T05:32:38;5.60;99.90
52565;DHT22;38460;53.106;7.004;2024-02-04T05:35:04;5.60;99.90
52565;DHT22;38460;53.106;7.004;2024-02-04T05:37:30;5.60;99.90
52565;DHT22;38460;53.106;7.004;2024-02-04T05:39:56;5.60;99.90
52565;DHT22;38460;53.106;7.004;2024-02-04T05:42:21;5.60;99.90
52565;DHT22;38460;53.106;7.004;2024-02-04T05:44:47;5.60;99.90
52565;DHT22;38460;53.106;7.004;2024-02-04T05:47:13;4.90;99.90
52565;DHT22;38460;53.106;7.004;2024-02-04T05:49:39;5.70;99.90
52565;DHT22;38460;53.106;7.004;2024-02-04T05:52:05;5.70;99.90
52565;DHT22;38460;53.106;7.004;2024-02-04T05:54:31;5.70;99.90
52565;DHT22;38460;53.106;7.004;2024-02-04T05:56:57;5.70;99.90
52565;DHT22;38460;53.106;7.004;2024-02-04T05:59:23;5.70;99.90
52565;DHT22;38460;53.106;7.004;2024-02-04T06:01:48;5.70;99.90
52565;DHT22;38460;53.106;7.004;2024-02-04T06:04:14;5.70;99.90
52565;DHT22;38460;53.106;7.004;2024-02-04T06:06:40;5.80;99.90
52565;DHT22;38460;53.106;7.004;2024-02-04T06:09:06;5.70;99.90
52565;DHT22;38460;53.106;7.004;2024-02-04T06:11:32;5.80;99.90
52565;DHT22;38460;53.106;7.004;2024-02-04T06:13:57;5.80;99.90
52565;DHT22;38460;53.106;7.004;2024-02-04T06:16:23;5.80;99.90
52565;DHT22;38460;53.106;7.004;2024-02-04T06:18:49;5.80;99.90
52565;DHT22;38460;53.106;7.004;2024-02-04T06:21:14;5.80;99.90
52565;DHT22;38460;53.106;7.004;2024-02-04T06:23:40;5.80;99.90
52565;DHT22;38460;53.106;7.004;2024-02-04T06:26:06;5.80;99.90
52565;DHT22;38460;53.106;7.004;2024-02-04T06:28:32;5.80;99.90
52565;DHT22;38460;53.106;7.004;2024-02-04T06:30:58;5.80;99.90
52565;DHT22;38460;53.106;7.004;2024-02-04T06:33:23;5.80;99.90
52565;DHT22;38460;53.106;7.004;2024-02-04T06:35:50;5.80;99.90
52565;DHT22;38460;53.106;7.004;2024-02-04T06:38:16;5.90;99.90
52565;DHT22;38460;53.106;7.004;2024-02-04T06:40:42;5.80;99.90
52565;DHT22;38460;53.106;7.004;2024-02-04T06:43:08;5.90;99.90
52565;DHT22;38460;53.106;7.004;2024-02-04T06:45:33;5.90;99.90
52565;DHT22;38460;53.106;7.004;2024-02-04T06:47:59;5.90;99.90
52565;DHT22;38460;53.106;7.004;2024-02-04T06:50:25;5.90;99.90
52565;DHT22;38460;53.106;7.004;2024-02-04T06:52:51;5.90;99.90
52565;DHT22;38460;53.106;7.004;2024-02-04T06:55:17;5.90;99.90
52565;DHT22;38460;53.106;7.004;2024-02-04T06:57:42;5.90;99.90
52565;DHT22;38460;53.106;7.004;2024-02-04T07:00:09;5.90;99.90
52565;DHT22;38460;53.106;7.004;2024-02-04T07:02:35;5.90;99.90
52565;DHT22;38460;53.106;7.004;2024-02-04T07:05:01;5.90;99.90
52565;DHT22;38460;53.106;7.004;2024-02-04T07:07:26;5.90;99.90
52565;DHT22;38460;53.106;7.004;2024-02-04T07:09:52;5.90;99.90
52565;DHT22;38460;53.106;7.004;2024-02-04T07:12:18;5.90;99.90
52565;DHT22;38460;53.106;7.004;2024-02-04T07:14:44;6.00;99.90
52565;DHT22;38460;53.106;7.004;2024-02-04T07:17:09;6.00;99.90
52565;DHT22;38460;53.106;7.004;2024-02-04T07:19:37;6.00;99.90
52565;DHT22;38460;53.106;7.004;2024-02-04T07:22:03;6.00;99.90
52565;DHT22;38460;53.106;7.004;2024-02-04T07:24:29;6.00;99.90
52565;DHT22;38460;53.106;7.004;2024-02-04T07:26:55;6.00;99.90
52565;DHT22;38460;53.106;7.004;2024-02-04T07:29:21;6.10;99.90
52565;DHT22;38460;53.106;7.004;2024-02-04T07:31:47;6.10;99.90
52565;DHT22;38460;53.106;7.004;2024-02-04T07:34:12;6.10;99.90
52565;DHT22;38460;53.106;7.004;2024-02-04T07:36:38;6.10;99.90
52565;DHT22;38460;53.106;7.004;2024-02-04T07:39:04;6.10;99.90
52565;DHT22;38460;53.106;7.004;2024-02-04T07:41:30;6.20;99.90
52565;DHT22;38460;53.106;7.004;2024-02-04T07:43:59;6.20;99.90
52565;DHT22;38460;53.106;7.004;2024-02-04T07:46:25;6.20;99.90
52565;DHT22;38460;53.106;7.004;2024-02-04T07:48:50;6.30;99.90
52565;DHT22;38460;53.106;7.004;2024-02-04T07:51:16;6.30;99.90
52565;DHT22;38460;53.106;7.004;2024-02-04T07:53:42;6.30;99.90
52565;DHT22;38460;53.106;7.004;2024-02-04T07:56:08;6.30;99.90
52565;DHT22;38460;53.106;7.004;2024-02-04T07:58:36;6.40;99.90
52565;DHT22;38460;53.106;7.004;2024-02-04T08:01:02;6.40;99.90
52565;DHT22;38460;53.106;7.004;2024-02-04T08:03:28;6.40;99.90
52565;DHT22;38460;53.106;7.004;2024-02-04T08:05:54;6.40;99.90
52565;DHT22;38460;53.106;7.004;2024-02-04T08:08:19;6.40;99.90
52565;DHT22;38460;53.106;7.004;2024-02-04T08:10:45;6.50;99.90
52565;DHT22;38460;53.106;7.004;2024-02-04T08:13:11;6.50;99.90
52565;DHT22;38460;53.106;7.004;2024-02-04T08:15:37;6.50;99.90
52565;DHT22;38460;53.106;7.004;2024-02-04T08:18:03;6.50;99.90
52565;DHT22;38460;53.106;7.004;2024-02-04T08:20:29;6.50;99.90
52565;DHT22;38460;53.106;7.004;2024-02-04T08:22:55;6.60;99.90
52565;DHT22;38460;53.106;7.004;2024-02-04T08:25:20;6.60;99.90
52565;DHT22;38460;53.106;7.004;2024-02-04T08:27:46;6.60;99.90
52565;DHT22;38460;53.106;7.004;2024-02-04T08:30:12;6.60;99.90
52565;DHT22;38460;53.106;7.004;2024-02-04T08:32:38;6.60;99.90
52565;DHT22;38460;53.106;7.004;2024-02-04T08:35:05;6.60;99.90
52565;DHT22;38460;53.106;7.004;2024-02-04T08:37:32;6.70;99.90
52565;DHT22;38460;53.106;7.004;2024-02-04T08:39:59;6.70;99.90
52565;DHT22;38460;53.106;7.004;2024-02-04T08:42:24;6.70;99.90
52565;DHT22;38460;53.106;7.004;2024-02-04T08:44:50;6.80;99.90
52565;DHT22;38460;53.106;7.004;2024-02-04T08:47:16;6.80;99.90
52565;DHT22;38460;53.106;7.004;2024-02-04T08:49:43;6.80;99.90
52565;DHT22;38460;53.106;7.004;2024-02-04T08:52:08;6.80;99.90
52565;DHT22;38460;53.106;7.004;2024-02-04T08:54:34;6.90;99.90
52565;DHT22;38460;53.106;7.004;2024-02-04T08:57:00;6.90;99.90
52565;DHT22;38460;53.106;7.004;2024-02-04T08:59:26;6.90;99.90
52565;DHT22;38460;53.106;7.004;2024-02-04T09:01:51;7.00;99.90
52565;DHT22;38460;53.106;7.004;2024-02-04T09:04:17;7.00;99.90
52565;DHT22;38460;53.106;7.004;2024-02-04T09:06:43;7.10;99.90
52565;DHT22;38460;53.106;7.004;2024-02-04T09:09:09;7.10;99.90
52565;DHT22;38460;53.106;7.004;2024-02-04T09:11:35;7.10;99.90
52565;DHT22;38460;53.106;7.004;2024-02-04T09:14:01;7.20;99.90
52565;DHT22;38460;53.106;7.004;2024-02-04T09:16:28;7.20;99.90
52565;DHT22;38460;53.106;7.004;2024-02-04T09:18:54;7.20;99.90
52565;DHT22;38460;53.106;7.004;2024-02-04T09:21:19;7.30;99.90
52565;DHT22;38460;53.106;7.004;2024-02-04T09:23:45;7.30;99.90
52565;DHT22;38460;53.106;7.004;2024-02-04T09:26:11;7.40;99.90
52565;DHT22;38460;53.106;7.004;2024-02-04T09:28:37;7.40;99.90
52565;DHT22;38460;53.106;7.004;2024-02-04T09:31:03;7.40;99.90
52565;DHT22;38460;53.106;7.004;2024-02-04T09:33:29;7.50;99.90
52565;DHT22;38460;53.106;7.004;2024-02-04T09:35:55;7.50;99.90
52565;DHT22;38460;53.106;7.004;2024-02-04T09:38:20;7.60;99.90
52565;DHT22;38460;53.106;7.004;2024-02-04T09:40:46;7.60;99.90
52565;DHT22;38460;53.106;7.004;2024-02-04T09:43:12;7.60;99.90
52565;DHT22;38460;53.106;7.004;2024-02-04T09:45:38;7.60;99.90
52565;DHT22;38460;53.106;7.004;2024-02-04T09:48:06;7.70;99.90
52565;DHT22;38460;53.106;7.004;2024-02-04T09:50:32;7.70;99.90
52565;DHT22;38460;53.106;7.004;2024-02-04T09:52:59;7.80;99.90
52565;DHT22;38460;53.106;7.004;2024-02-04T09:55:29;7.80;99.90
52565;DHT22;38460;53.106;7.004;2024-02-04T09:57:55;7.90;99.90
52565;DHT22;38460;53.106;7.004;2024-02-04T10:00:21;7.90;99.90
52565;DHT22;38460;53.106;7.004;2024-02-04T10:02:48;7.90;99.90
52565;DHT22;38460;53.106;7.004;2024-02-04T10:05:17;8.00;99.90
52565;DHT22;38460;53.106;7.004;2024-02-04T10:07:43;8.00;99.90
52565;DHT22;38460;53.106;7.004;2024-02-04T10:10:09;8.00;99.90
52565;DHT22;38460;53.106;7.004;2024-02-04T10:12:36;8.00;99.90
52565;DHT22;38460;53.106;7.004;2024-02-04T10:15:05;8.00;99.90
52565;DHT22;38460;53.106;7.004;2024-02-04T10:17:32;8.00;99.90
52565;DHT22;38460;53.106;7.004;2024-02-04T10:19:58;8.00;99.90
52565;DHT22;38460;53.106;7.004;2024-02-04T10:22:26;8.00;99.90
52565;DHT22;38460;53.106;7.004;2024-02-04T10:24:52;8.00;99.90
52565;DHT22;38460;53.106;7.004;2024-02-04T10:27:19;8.00;99.90
52565;DHT22;38460;53.106;7.004;2024-02-04T10:29:45;8.00;99.90
52565;DHT22;38460;53.106;7.004;2024-02-04T10:32:11;8.10;99.90
52565;DHT22;38460;53.106;7.004;2024-02-04T10:34:38;8.10;99.90
52565;DHT22;38460;53.106;7.004;2024-02-04T10:37:05;8.10;99.90
52565;DHT22;38460;53.106;7.004;2024-02-04T10:39:31;8.10;99.90
52565;DHT22;38460;53.106;7.004;2024-02-04T10:42:02;8.20;99.90
52565;DHT22;38460;53.106;7.004;2024-02-04T10:44:35;8.20;99.90
52565;DHT22;38460;53.106;7.004;2024-02-04T10:47:06;8.20;99.90
52565;DHT22;38460;53.106;7.004;2024-02-04T10:49:37;8.30;99.90
52565;DHT22;38460;53.106;7.004;2024-02-04T10:52:07;8.40;99.90
52565;DHT22;38460;53.106;7.004;2024-02-04T10:54:34;8.40;99.90
52565;DHT22;38460;53.106;7.004;2024-02-04T10:57:09;8.50;99.90
52565;DHT22;38460;53.106;7.004;2024-02-04T10:59:36;8.50;99.90
52565;DHT22;38460;53.106;7.004;2024-02-04T11:02:05;8.50;99.90
52565;DHT22;38460;53.106;7.004;2024-02-04T11:04:33;8.50;99.90
52565;DHT22;38460;53.106;7.004;2024-02-04T11:07:01;8.50;99.90
52565;DHT22;38460;53.106;7.004;2024-02-04T11:09:27;8.50;99.90
52565;DHT22;38460;53.106;7.004;2024-02-04T11:11:56;8.50;99.90
52565;DHT22;38460;53.106;7.004;2024-02-04T11:14:25;8.50;99.90
52565;DHT22;38460;53.106;7.004;2024-02-04T11:17:08;8.50;99.90
52565;DHT22;38460;53.106;7.004;2024-02-04T11:25:48;8.50;99.90
52565;DHT22;38460;53.106;7.004;2024-02-04T11:27:54;8.50;99.90
52565;DHT22;38460;53.106;7.004;2024-02-04T11:30:20;8.50;99.90
52565;DHT22;38460;53.106;7.004;2024-02-04T11:32:46;8.50;99.90
52565;DHT22;38460;53.106;7.004;2024-02-04T11:35:12;8.50;99.90
52565;DHT22;38460;53.106;7.004;2024-02-04T11:37:38;8.50;99.90
52565;DHT22;38460;53.106;7.004;2024-02-04T11:40:13;8.50;99.90
52565;DHT22;38460;53.106;7.004;2024-02-04T11:42:39;8.50;99.90
52565;DHT22;38460;53.106;7.004;2024-02-04T11:45:12;8.50;99.90
52565;DHT22;38460;53.106;7.004;2024-02-04T11:47:39;8.50;99.90
52565;DHT22;38460;53.106;7.004;2024-02-04T11:50:05;8.60;99.90
52565;DHT22;38460;53.106;7.004;2024-02-04T11:52:32;8.60;99.90
52565;DHT22;38460;53.106;7.004;2024-02-04T11:54:58;8.60;99.90
52565;DHT22;38460;53.106;7.004;2024-02-04T11:57:24;8.60;99.90
52565;DHT22;38460;53.106;7.004;2024-02-04T11:59:51;8.70;99.90
52565;DHT22;38460;53.106;7.004;2024-02-04T12:02:18;8.70;99.90
52565;DHT22;38460;53.106;7.004;2024-02-04T12:04:44;8.70;99.90
52565;DHT22;38460;53.106;7.004;2024-02-04T12:07:10;8.70;99.90
52565;DHT22;38460;53.106;7.004;2024-02-04T12:09:36;8.70;99.90
52565;DHT22;38460;53.106;7.004;2024-02-04T12:12:04;8.80;99.90
52565;DHT22;38460;53.106;7.004;2024-02-04T12:14:31;8.70;99.90
52565;DHT22;38460;53.106;7.004;2024-02-04T12:16:57;8.80;99.90
52565;DHT22;38460;53.106;7.004;2024-02-04T12:19:23;8.80;99.90
52565;DHT22;38460;53.106;7.004;2024-02-04T12:21:49;8.80;99.90
52565;DHT22;38460;53.106;7.004;2024-02-04T12:24:15;8.80;99.90
52565;DHT22;38460;53.106;7.004;2024-02-04T12:26:41;8.80;99.90
52565;DHT22;38460;53.106;7.004;2024-02-04T12:29:08;8.90;99.90
52565;DHT22;38460;53.106;7.004;2024-02-04T12:31:34;8.90;99.90
52565;DHT22;38460;53.106;7.004;2024-02-04T12:34:00;8.90;99.90
52565;DHT22;38460;53.106;7.004;2024-02-04T12:36:28;8.90;99.90
52565;DHT22;38460;53.106;7.004;2024-02-04T12:38:54;9.00;99.90
52565;DHT22;38460;53.106;7.004;2024-02-04T12:41:24;9.00;99.90
52565;DHT22;38460;53.106;7.004;2024-02-04T12:43:59;9.00;99.90
52565;DHT22;38460;53.106;7.004;2024-02-04T12:46:26;9.00;99.90
52565;DHT22;38460;53.106;7.004;2024-02-04T12:48:56;9.00;99.90
52565;DHT22;38460;53.106;7.004;2024-02-04T12:51:33;9.00;99.90
52565;DHT22;38460;53.106;7.004;2024-02-04T12:54:07;9.00;99.90
52565;DHT22;38460;53.106;7.004;2024-02-04T12:59:23;9.00;99.90
52565;DHT22;38460;53.106;7.004;2024-02-04T13:04:22;9.00;99.90
52565;DHT22;38460;53.106;7.004;2024-02-04T13:06:48;9.00;99.90
52565;DHT22;38460;53.106;7.004;2024-02-04T13:09:18;9.00;99.90
52565;DHT22;38460;53.106;7.004;2024-02-04T13:11:44;8.90;99.90
52565;DHT22;38460;53.106;7.004;2024-02-04T13:14:10;8.90;99.90
52565;DHT22;38460;53.106;7.004;2024-02-04T13:16:36;8.90;99.90
52565;DHT22;38460;53.106;7.004;2024-02-04T13:19:02;8.90;99.90
52565;DHT22;38460;53.106;7.004;2024-02-04T13:21:29;8.90;99.90
52565;DHT22;38460;53.106;7.004;2024-02-04T13:23:55;8.90;99.90
52565;DHT22;38460;53.106;7.004;2024-02-04T13:26:21;8.90;99.90
52565;DHT22;38460;53.106;7.004;2024-02-04T13:28:46;8.90;99.90
52565;DHT22;38460;53.106;7.004;2024-02-04T13:31:12;8.90;99.90
52565;DHT22;38460;53.106;7.004;2024-02-04T13:33:39;8.90;99.90
52565;DHT22;38460;53.106;7.004;2024-02-04T13:36:06;8.80;99.90
52565;DHT22;38460;53.106;7.004;2024-02-04T13:38:33;8.80;99.90
52565;DHT22;38460;53.106;7.004;2024-02-04T13:41:00;8.80;99.90
52565;DHT22;38460;53.106;7.004;2024-02-04T13:43:26;8.80;99.90
52565;DHT22;38460;53.106;7.004;2024-02-04T13:45:52;8.80;99.90
52565;DHT22;38460;53.106;7.004;2024-02-04T13:48:18;8.70;99.90
52565;DHT22;38460;53.106;7.004;2024-02-04T13:50:44;8.80;99.90
52565;DHT22;38460;53.106;7.004;2024-02-04T13:53:11;8.80;99.90
52565;DHT22;38460;53.106;7.004;2024-02-04T13:55:37;8.70;99.90
52565;DHT22;38460;53.106;7.004;2024-02-04T13:58:03;8.70;99.90
52565;DHT22;38460;53.106;7.004;2024-02-04T14:00:29;8.70;99.90
52565;DHT22;38460;53.106;7.004;2024-02-04T14:02:55;8.70;99.90
52565;DHT22;38460;53.106;7.004;2024-02-04T14:05:20;8.70;99.90
52565;DHT22;38460;53.106;7.004;2024-02-04T14:07:46;8.60;99.90
52565;DHT22;38460;53.106;7.004;2024-02-04T14:10:12;8.60;99.90
52565;DHT22;38460;53.106;7.004;2024-02-04T14:12:40;8.60;99.90
52565;DHT22;38460;53.106;7.004;2024-02-04T14:15:09;8.60;99.90
52565;DHT22;38460;53.106;7.004;2024-02-04T14:17:35;8.50;99.90
52565;DHT22;38460;53.106;7.004;2024-02-04T14:20:01;8.50;99.90
52565;DHT22;38460;53.106;7.004;2024-02-04T14:22:26;8.50;99.90
52565;DHT22;38460;53.106;7.004;2024-02-04T14:24:53;8.50;99.90
52565;DHT22;38460;53.106;7.004;2024-02-04T14:27:19;8.50;99.90
52565;DHT22;38460;53.106;7.004;2024-02-04T14:29:44;8.50;99.90
52565;DHT22;38460;53.106;7.004;2024-02-04T14:32:10;8.50;99.90
52565;DHT22;38460;53.106;7.004;2024-02-04T14:34:36;8.40;99.90
52565;DHT22;38460;53.106;7.004;2024-02-04T14:37:02;8.40;99.90
52565;DHT22;38460;53.106;7.004;2024-02-04T14:39:28;8.40;99.90
52565;DHT22;38460;53.106;7.004;2024-02-04T14:41:57;8.40;99.90
52565;DHT22;38460;53.106;7.004;2024-02-04T14:44:23;8.40;99.90
52565;DHT22;38460;53.106;7.004;2024-02-04T14:46:49;8.40;99.90
52565;DHT22;38460;53.106;7.004;2024-02-04T14:49:15;8.30;99.90
52565;DHT22;38460;53.106;7.004;2024-02-04T14:51:41;8.30;99.90
52565;DHT22;38460;53.106;7.004;2024-02-04T14:54:07;8.30;99.90
52565;DHT22;38460;53.106;7.004;2024-02-04T14:56:40;8.30;99.90
52565;DHT22;38460;53.106;7.004;2024-02-04T14:59:08;8.30;99.90
52565;DHT22;38460;53.106;7.004;2024-02-04T15:01:34;8.30;99.90
52565;DHT22;38460;53.106;7.004;2024-02-04T15:04:00;8.30;99.90
52565;DHT22;38460;53.106;7.004;2024-02-04T15:06:26;8.30;99.90
52565;DHT22;38460;53.106;7.004;2024-02-04T15:08:52;8.30;99.90
52565;DHT22;38460;53.106;7.004;2024-02-04T15:11:18;8.30;99.90
52565;DHT22;38460;53.106;7.004;2024-02-04T15:13:45;8.30;99.90
52565;DHT22;38460;53.106;7.004;2024-02-04T15:16:11;8.30;99.90
52565;DHT22;38460;53.106;7.004;2024-02-04T15:18:38;8.30;99.90
52565;DHT22;38460;53.106;7.004;2024-02-04T15:21:04;8.30;99.90
52565;DHT22;38460;53.106;7.004;2024-02-04T15:23:31;8.30;99.90
52565;DHT22;38460;53.106;7.004;2024-02-04T15:25:57;8.30;99.90
52565;DHT22;38460;53.106;7.004;2024-02-04T15:28:24;8.30;99.90
52565;DHT22;38460;53.106;7.004;2024-02-04T15:30:50;8.30;99.90
52565;DHT22;38460;53.106;7.004;2024-02-04T15:33:16;8.30;99.90
52565;DHT22;38460;53.106;7.004;2024-02-04T15:35:43;8.30;99.90
52565;DHT22;38460;53.106;7.004;2024-02-04T15:38:09;8.30;99.90
52565;DHT22;38460;53.106;7.004;2024-02-04T15:40:35;8.30;99.90
52565;DHT22;38460;53.106;7.004;2024-02-04T15:43:01;8.30;99.90
52565;DHT22;38460;53.106;7.004;2024-02-04T15:45:27;8.30;99.90
52565;DHT22;38460;53.106;7.004;2024-02-04T15:47:53;8.30;99.90
52565;DHT22;38460;53.106;7.004;2024-02-04T15:50:20;8.30;99.90
52565;DHT22;38460;53.106;7.004;2024-02-04T15:52:50;8.40;99.90
52565;DHT22;38460;53.106;7.004;2024-02-04T15:55:16;8.40;99.90